createdAt,value
2017-09-16T00:02:02.419Z,95.60
2017-09-16T00:04:29.924Z,95.50
2017-09-16T00:06:57.462Z,95.40
2017-09-16T00:09:24.967Z,95.50
2017-09-16T00:11:52.866Z,95.90
2017-09-16T00:14:20.373Z,95.90
2017-09-16T00:16:47.875Z,96.10
2017-09-16T00:19:15.410Z,96.40
2017-09-16T00:21:42.917Z,97.50
2017-09-16T00:24:10.439Z,97.30
2017-09-16T00:26:38.334Z,97.30
2017-09-16T00:29:05.858Z,97.30
2017-09-16T00:31:33.355Z,97.30
2017-09-16T00:34:00.850Z,96.90
2017-09-16T00:36:28.371Z,97.10
2017-09-16T00:38:56.254Z,97.10
2017-09-16T00:41:23.777Z,97.00
2017-09-16T00:43:51.278Z,97.10
2017-09-16T00:46:18.794Z,97.20
2017-09-16T00:48:46.285Z,96.30
2017-09-16T00:51:14.170Z,96.30
2017-09-16T00:53:41.693Z,96.30
2017-09-16T00:56:09.195Z,96.60
2017-09-16T00:58:36.712Z,96.70
2017-09-16T01:01:04.213Z,97.20
2017-09-16T01:03:32.125Z,97.80
2017-09-16T01:05:59.629Z,97.80
2017-09-16T01:08:27.123Z,97.80
2017-09-16T01:10:54.679Z,97.80
2017-09-16T01:13:22.187Z,97.40
2017-09-16T01:15:49.703Z,97.30
2017-09-16T01:18:17.205Z,97.50
2017-09-16T01:20:44.713Z,97.30
2017-09-16T01:23:12.216Z,97.00
2017-09-16T01:25:39.747Z,96.70
2017-09-16T01:28:07.630Z,96.10
2017-09-16T01:30:35.126Z,96.10
2017-09-16T01:33:02.634Z,95.70
2017-09-16T01:35:30.130Z,95.90
2017-09-16T01:37:58.060Z,96.20
2017-09-16T01:40:26.166Z,96.10
2017-09-16T01:42:53.695Z,96.30
2017-09-16T01:45:21.213Z,96.60
2017-09-16T01:47:48.732Z,96.60
2017-09-16T01:50:16.235Z,96.70
2017-09-16T01:52:43.771Z,96.80
2017-09-16T01:55:11.278Z,96.80
2017-09-16T01:57:38.783Z,96.70
2017-09-16T02:00:06.287Z,96.50
2017-09-16T02:02:34.178Z,96.10
2017-09-16T02:05:01.689Z,96.10
2017-09-16T02:07:29.574Z,95.80
2017-09-16T02:09:57.088Z,95.80
2017-09-16T02:12:25.216Z,96.30
2017-09-16T02:14:52.724Z,96.30
2017-09-16T02:17:20.228Z,95.90
2017-09-16T02:19:48.148Z,96.10
2017-09-16T02:22:15.646Z,96.00
2017-09-16T02:24:43.146Z,95.90
2017-09-16T02:27:10.645Z,96.30
2017-09-16T02:29:38.138Z,96.50
2017-09-16T02:32:05.653Z,96.40
2017-09-16T02:34:33.138Z,96.60
2017-09-16T02:37:01.047Z,95.60
2017-09-16T02:39:28.550Z,95.60
2017-09-16T02:41:56.041Z,95.80
2017-09-16T02:44:23.549Z,96.20
2017-09-16T02:46:51.106Z,96.40
2017-09-16T02:49:18.627Z,96.20
2017-09-16T02:51:46.117Z,96.30
2017-09-16T02:54:13.629Z,96.40
2017-09-16T02:56:41.126Z,96.40
2017-09-16T02:59:09.046Z,96.10
2017-09-16T03:01:36.546Z,96.10
2017-09-16T03:04:04.035Z,96.50
2017-09-16T03:06:31.545Z,96.10
2017-09-16T03:08:59.049Z,96.40
2017-09-16T03:11:26.563Z,96.80
2017-09-16T03:13:54.063Z,97.20
2017-09-16T03:16:21.595Z,97.30
2017-09-16T03:18:49.477Z,96.80
2017-09-16T03:21:17.002Z,96.80
2017-09-16T03:23:44.503Z,97.00
2017-09-16T03:26:12.017Z,97.00
2017-09-16T03:28:39.526Z,97.00
2017-09-16T03:31:07.022Z,96.50
2017-09-16T03:33:34.547Z,96.90
2017-09-16T03:36:02.035Z,97.20
2017-09-16T03:38:29.546Z,97.20
2017-09-16T03:40:57.045Z,96.70
2017-09-16T03:43:24.579Z,96.80
2017-09-16T03:45:52.465Z,97.20
2017-09-16T03:48:19.959Z,97.20
2017-09-16T03:50:47.470Z,96.90
2017-09-16T03:53:14.972Z,96.50
2017-09-16T03:55:42.478Z,96.80
2017-09-16T03:58:09.980Z,97.10
2017-09-16T04:00:37.497Z,97.30
2017-09-16T04:03:05.390Z,98.10
2017-09-16T04:05:32.922Z,98.10
2017-09-16T04:08:00.413Z,98.40
2017-09-16T04:10:28.314Z,98.10
2017-09-16T04:12:55.839Z,98.10
2017-09-16T04:15:23.335Z,98.00
2017-09-16T04:17:50.853Z,98.00
2017-09-16T04:20:18.374Z,97.80
2017-09-16T04:22:45.886Z,97.90
2017-09-16T04:25:13.388Z,97.60
2017-09-16T04:27:40.908Z,97.40
2017-09-16T04:30:08.425Z,97.40
2017-09-16T04:32:36.313Z,97.50
2017-09-16T04:35:03.865Z,97.50
2017-09-16T04:37:31.353Z,97.30
2017-09-16T04:39:58.974Z,97.20
2017-09-16T04:42:26.484Z,97.30
2017-09-16T04:44:54.003Z,97.20
2017-09-16T04:47:21.538Z,97.00
2017-09-16T04:49:49.458Z,96.90
2017-09-16T04:52:17.055Z,96.90
2017-09-16T04:54:44.582Z,97.10
2017-09-16T04:57:12.524Z,97.70
2017-09-16T04:59:40.030Z,97.70
2017-09-16T05:02:07.547Z,97.80
2017-09-16T05:04:35.118Z,97.70
2017-09-16T05:07:02.688Z,97.20
2017-09-16T05:09:30.286Z,97.10
2017-09-16T05:11:57.807Z,97.00
2017-09-16T05:14:25.373Z,97.20
2017-09-16T05:16:52.914Z,97.20
2017-09-16T05:19:20.458Z,97.10
2017-09-16T05:21:47.991Z,97.10
2017-09-16T05:24:15.503Z,97.20
2017-09-16T05:26:43.071Z,97.30
2017-09-16T05:29:10.604Z,96.80
2017-09-16T05:31:38.141Z,96.80
2017-09-16T05:34:06.058Z,96.90
2017-09-16T05:36:33.576Z,96.90
2017-09-16T05:39:01.103Z,96.80
2017-09-16T05:41:29.032Z,97.40
2017-09-16T05:43:56.600Z,97.40
2017-09-16T05:46:24.162Z,97.50
2017-09-16T05:48:51.710Z,97.50
2017-09-16T05:51:19.253Z,97.50
2017-09-16T05:53:46.805Z,97.60
2017-09-16T05:56:14.356Z,97.60
2017-09-16T05:58:41.923Z,97.50
2017-09-16T06:01:09.476Z,97.30
2017-09-16T06:03:37.047Z,97.30
2017-09-16T06:06:04.627Z,97.30
2017-09-16T06:08:32.195Z,97.40
2017-09-16T06:10:59.743Z,97.60
2017-09-16T06:13:27.267Z,97.80
2017-09-16T06:15:54.827Z,97.90
2017-09-16T06:18:22.330Z,98.10
2017-09-16T06:20:49.856Z,98.20
2017-09-16T06:23:17.759Z,97.90
2017-09-16T06:25:45.295Z,97.90
2017-09-16T06:28:12.967Z,98.20
2017-09-16T06:30:40.465Z,98.50
2017-09-16T06:33:08.013Z,98.70
2017-09-16T06:35:35.511Z,98.90
2017-09-16T06:38:03.026Z,99.30
2017-09-16T06:40:30.533Z,99.30
2017-09-16T06:42:58.048Z,99.00
2017-09-16T06:45:25.554Z,98.60
2017-09-16T06:47:53.124Z,98.50
2017-09-16T06:50:20.631Z,98.20
2017-09-16T06:52:48.129Z,98.30
2017-09-16T06:55:16.052Z,98.20
2017-09-16T06:57:43.551Z,98.20
2017-09-16T07:00:11.076Z,98.00
2017-09-16T07:02:38.594Z,97.90
2017-09-16T07:05:06.098Z,97.80
2017-09-16T07:07:33.593Z,98.00
2017-09-16T07:10:01.122Z,97.80
2017-09-16T07:12:28.618Z,97.90
2017-09-16T07:14:56.110Z,98.00
2017-09-16T07:17:23.626Z,97.90
2017-09-16T07:19:51.113Z,97.70
2017-09-16T07:22:19.021Z,97.30
2017-09-16T07:24:46.522Z,97.30
2017-09-16T07:27:14.054Z,97.60
2017-09-16T07:29:41.955Z,98.00
2017-09-16T07:32:09.613Z,98.00
2017-09-16T07:34:37.119Z,97.30
2017-09-16T07:37:04.649Z,97.10
2017-09-16T07:39:32.150Z,96.70
2017-09-16T07:41:59.655Z,95.80
2017-09-16T07:44:27.170Z,96.10
2017-09-16T07:46:55.061Z,93.70
2017-09-16T07:49:22.576Z,93.70
2017-09-16T07:51:50.094Z,94.00
2017-09-16T07:54:17.615Z,93.80
2017-09-16T07:56:45.121Z,92.70
2017-09-16T07:59:12.642Z,92.90
2017-09-16T08:01:40.149Z,92.80
2017-09-16T08:04:07.682Z,91.00
2017-09-16T08:06:35.189Z,90.30
2017-09-16T08:09:02.698Z,90.20
2017-09-16T08:11:30.626Z,89.70
2017-09-16T08:13:58.139Z,89.70
2017-09-16T08:16:25.683Z,89.60
2017-09-16T08:18:53.199Z,87.10
2017-09-16T08:21:21.142Z,86.00
2017-09-16T08:23:49.094Z,86.40
2017-09-16T08:26:17.038Z,86.70
2017-09-16T08:28:44.562Z,86.70
2017-09-16T08:31:12.145Z,87.00
2017-09-16T08:33:40.051Z,83.90
2017-09-16T08:36:07.558Z,83.90
2017-09-16T08:38:35.074Z,85.00
2017-09-16T08:41:03.051Z,83.50
2017-09-16T08:43:30.579Z,83.50
2017-09-16T08:45:58.489Z,84.00
2017-09-16T08:48:26.269Z,84.00
2017-09-16T08:50:53.770Z,82.40
2017-09-16T08:53:21.302Z,82.90
2017-09-16T08:55:48.914Z,82.50
2017-09-16T08:58:16.882Z,82.30
2017-09-16T09:00:44.448Z,82.30
2017-09-16T09:03:12.000Z,81.20
2017-09-16T09:05:39.557Z,81.90
2017-09-16T09:08:07.150Z,81.90
2017-09-16T09:10:34.711Z,82.60
2017-09-16T09:13:02.234Z,83.60
2017-09-16T09:15:29.811Z,81.30
2017-09-16T09:17:57.342Z,80.00
2017-09-16T09:20:25.122Z,81.00
2017-09-16T09:22:52.643Z,79.30
2017-09-16T09:25:20.182Z,79.50
2017-09-16T09:27:47.723Z,79.50
2017-09-16T09:30:15.255Z,79.80
2017-09-16T09:32:43.170Z,78.00
2017-09-16T09:35:10.722Z,78.00
2017-09-16T09:37:38.244Z,77.30
2017-09-16T09:40:05.822Z,75.50
2017-09-16T09:42:33.389Z,75.20
2017-09-16T09:45:00.907Z,76.00
2017-09-16T09:47:28.448Z,73.90
2017-09-16T09:49:56.013Z,75.50
2017-09-16T09:52:23.994Z,73.90
2017-09-16T09:54:51.511Z,73.90
2017-09-16T09:57:19.439Z,76.20
2017-09-16T09:59:46.991Z,76.20
2017-09-16T10:02:14.556Z,77.00
2017-09-16T10:04:42.483Z,74.90
2017-09-16T10:07:09.997Z,74.80
2017-09-16T10:09:37.543Z,75.40
2017-09-16T10:12:05.075Z,74.90
2017-09-16T10:14:32.634Z,76.70
2017-09-16T10:17:00.192Z,75.70
2017-09-16T10:19:27.771Z,74.30
2017-09-16T10:21:55.725Z,72.70
2017-09-16T10:24:23.654Z,72.50
2017-09-16T10:26:51.212Z,72.60
2017-09-16T10:29:18.775Z,73.00
2017-09-16T10:31:46.307Z,74.20
2017-09-16T10:34:14.248Z,74.10
2017-09-16T10:36:41.808Z,74.10
2017-09-16T10:39:09.736Z,70.30
2017-09-16T10:41:37.252Z,70.30
2017-09-16T10:44:04.804Z,69.90
2017-09-16T10:46:32.328Z,71.20
2017-09-16T10:48:59.900Z,70.00
2017-09-16T10:51:27.432Z,68.90
2017-09-16T10:53:55.019Z,69.80
2017-09-16T10:56:22.988Z,70.80
2017-09-16T10:58:50.564Z,70.80
2017-09-16T11:01:18.110Z,70.40
2017-09-16T11:03:45.674Z,71.30
2017-09-16T11:06:13.210Z,69.10
2017-09-16T11:08:40.728Z,69.90
2017-09-16T11:11:08.310Z,71.40
2017-09-16T11:13:35.867Z,71.10
2017-09-16T11:16:03.398Z,71.90
2017-09-16T11:18:30.961Z,71.50
2017-09-16T11:20:58.534Z,72.50
2017-09-16T11:23:26.468Z,69.50
2017-09-16T11:25:54.003Z,69.40
2017-09-16T11:28:21.957Z,69.30
2017-09-16T11:30:49.543Z,69.30
2017-09-16T11:33:17.092Z,69.70
2017-09-16T11:35:44.626Z,69.40
2017-09-16T11:38:12.202Z,71.40
2017-09-16T11:40:39.738Z,72.40
2017-09-16T11:43:07.307Z,72.10
2017-09-16T11:45:34.853Z,71.40
2017-09-16T11:48:03.250Z,70.10
2017-09-16T11:50:31.176Z,69.70
2017-09-16T11:52:58.728Z,69.70
2017-09-16T11:55:26.258Z,72.20
2017-09-16T11:57:53.806Z,69.10
2017-09-16T12:00:21.359Z,70.30
2017-09-16T12:02:48.945Z,69.00
2017-09-16T12:05:16.476Z,70.20
2017-09-16T12:07:44.011Z,70.20
2017-09-16T12:10:11.991Z,69.70
2017-09-16T12:12:39.563Z,69.70
2017-09-16T12:15:07.137Z,70.10
2017-09-16T12:17:34.702Z,70.60
2017-09-16T12:20:02.260Z,71.00
2017-09-16T12:22:30.214Z,71.20
2017-09-16T12:24:57.784Z,71.20
2017-09-16T12:27:26.127Z,70.80
2017-09-16T12:29:53.736Z,70.50
2017-09-16T12:32:21.328Z,71.30
2017-09-16T12:34:48.877Z,71.90
2017-09-16T12:37:16.478Z,69.80
2017-09-16T12:39:44.464Z,71.20
2017-09-16T12:42:12.048Z,71.20
2017-09-16T12:44:54.353Z,69.00
2017-09-16T12:47:21.967Z,69.90
2017-09-16T12:49:49.556Z,68.30
2017-09-16T12:52:17.558Z,66.50
2017-09-16T12:54:45.128Z,66.50
2017-09-16T12:57:12.747Z,67.00
2017-09-16T12:59:40.298Z,66.30
2017-09-16T13:02:07.849Z,67.70
2017-09-16T13:04:35.441Z,68.60
2017-09-16T13:07:03.408Z,67.70
2017-09-16T13:09:31.026Z,67.70
2017-09-16T13:11:59.007Z,66.90
2017-09-16T13:14:26.548Z,66.90
2017-09-16T13:16:54.458Z,67.50
2017-09-16T13:19:22.414Z,66.90
2017-09-16T13:21:51.226Z,66.90
2017-09-16T13:24:19.270Z,67.90
2017-09-16T13:26:46.821Z,67.90
2017-09-16T13:29:14.858Z,68.90
2017-09-16T13:31:42.834Z,68.00
2017-09-16T13:34:10.758Z,68.20
2017-09-16T13:36:38.286Z,68.20
2017-09-16T13:39:05.839Z,68.70
2017-09-16T13:41:33.394Z,69.00
2017-09-16T13:44:00.931Z,67.40
2017-09-16T13:46:28.498Z,67.60
2017-09-16T13:48:56.117Z,67.40
2017-09-16T13:51:23.664Z,66.50
2017-09-16T13:53:51.257Z,65.90
2017-09-16T13:56:18.796Z,66.20
2017-09-16T13:58:46.419Z,67.70
2017-09-16T14:01:14.375Z,69.00
2017-09-16T14:03:42.332Z,70.40
2017-09-16T14:06:10.259Z,69.90
2017-09-16T14:08:37.807Z,69.90
2017-09-16T14:11:05.338Z,68.30
2017-09-16T14:13:32.895Z,70.40
2017-09-16T14:16:00.407Z,72.00
2017-09-16T14:18:27.924Z,69.70
2017-09-16T14:20:55.609Z,70.60
2017-09-16T14:23:23.140Z,71.50
2017-09-16T14:25:50.656Z,71.30
2017-09-16T14:28:18.194Z,70.70
2017-09-16T14:30:46.113Z,71.00
2017-09-16T14:33:13.623Z,71.00
2017-09-16T14:35:41.141Z,71.60
2017-09-16T14:38:08.675Z,71.20
2017-09-16T14:40:36.575Z,71.10
2017-09-16T14:43:04.094Z,71.10
2017-09-16T14:45:31.613Z,72.20
2017-09-16T14:47:59.570Z,72.00
2017-09-16T14:50:27.484Z,71.20
2017-09-16T14:52:55.040Z,71.20
2017-09-16T14:55:22.544Z,72.00
2017-09-16T14:57:50.049Z,71.90
2017-09-16T15:00:17.969Z,72.70
2017-09-16T15:02:45.482Z,72.70
2017-09-16T15:05:13.009Z,72.20
2017-09-16T15:07:40.517Z,72.80
2017-09-16T15:10:08.046Z,73.40
2017-09-16T15:12:35.729Z,73.30
2017-09-16T15:15:03.275Z,73.60
2017-09-16T15:17:30.811Z,74.00
2017-09-16T15:19:58.786Z,74.20
2017-09-16T15:22:26.302Z,74.20
2017-09-16T15:24:53.800Z,74.00
2017-09-16T15:27:21.328Z,74.00
2017-09-16T15:29:48.829Z,74.70
2017-09-16T15:32:16.761Z,74.40
2017-09-16T15:34:44.269Z,74.40
2017-09-16T15:37:11.829Z,75.00
2017-09-16T15:39:39.842Z,75.70
2017-09-16T15:42:07.349Z,75.80
2017-09-16T15:44:34.868Z,76.00
2017-09-16T15:47:02.416Z,76.40
2017-09-16T15:49:29.942Z,76.40
2017-09-16T15:51:57.531Z,76.70
2017-09-16T15:54:25.121Z,76.90
2017-09-16T15:56:52.659Z,77.50
2017-09-16T15:59:20.252Z,77.10
2017-09-16T16:01:47.852Z,78.30
2017-09-16T16:04:15.473Z,84.10
2017-09-16T16:06:43.080Z,86.30
2017-09-16T16:09:10.742Z,86.40
2017-09-16T16:11:38.454Z,88.90
2017-09-16T16:14:06.104Z,89.90
2017-09-16T16:16:33.772Z,90.20
2017-09-16T16:19:01.404Z,90.00
2017-09-16T16:21:29.002Z,91.10
2017-09-16T16:23:57.439Z,90.80
2017-09-16T16:26:25.225Z,92.40
2017-09-16T16:28:52.870Z,93.10
2017-09-16T16:31:20.573Z,93.20
2017-09-16T16:33:48.245Z,94.00
2017-09-16T16:36:16.266Z,93.90
2017-09-16T16:38:43.875Z,93.90
2017-09-16T16:41:11.501Z,94.40
2017-09-16T16:43:39.136Z,95.10
2017-09-16T16:46:07.134Z,96.10
2017-09-16T16:48:34.835Z,96.10
2017-09-16T16:51:03.851Z,96.10
2017-09-16T16:53:31.553Z,96.10
2017-09-16T16:55:59.211Z,95.50
2017-09-16T16:58:26.803Z,96.40
2017-09-16T17:00:54.465Z,96.50
2017-09-16T17:03:22.045Z,97.30
2017-09-16T17:05:50.128Z,95.10
2017-09-16T17:08:17.724Z,95.10
2017-09-16T17:10:45.760Z,95.90
2017-09-16T17:13:13.405Z,95.90
2017-09-16T17:15:41.022Z,95.60
2017-09-16T17:18:08.584Z,95.80
2017-09-16T17:20:37.225Z,96.00
